Terminal Aerodrome Forecast
Issued by NWS Charleston, WV

Current Version | Previous Version | Text Only | Print | Product List | Glossary Off
Versions: 1 2 3 4 5 6 7 8 9 10 11 12 13 14 15 16 17 18 19 20 21 22

000
FTUS41 KRLX 190800 AAA
TAFHTS
TAF AMD
KHTS 190829Z 1908/2006 03003KT P6SM SKC
     FM191400 05003KT P6SM SCT200
     FM192300 06005KT P6SM FEW050
     FM200200 13006KT P6SM SCT070=

USA.gov is the U.S. government's official web portal to all federal, state and local government web resources and services.